Time,TemperatureF,DewpointF,PressureIn,WindDirection,WindDirectionDegrees,WindSpeedMPH,WindSpeedGustMPH,Humidity,HourlyPrecipIn,Conditions,Clouds,dailyrainin,SolarRadiationWatts/m^2,SoftwareType,DateUTC
2013-02-06 00:00:00,29.9,28.4,29.93,NE,39,1.0,1.0,94,0.00,,,0.00,0,Wunderground v.1.15,2013-02-06 05:00:00,
2013-02-06 00:05:00,30.0,28.5,29.93,NE,39,0.0,1.0,94,0.00,,,0.00,0,Wunderground v.1.15,2013-02-06 05:05:00,
2013-02-06 00:10:00,29.9,28.4,29.93,NE,39,1.0,2.0,94,0.00,,,0.00,0,Wunderground v.1.15,2013-02-06 05:10:00,
2013-02-06 00:15:00,29.9,28.4,29.93,NE,39,1.0,2.0,94,0.00,,,0.00,0,Wunderground v.1.15,2013-02-06 05:15:00,
2013-02-06 00:20:00,29.9,28.4,29.93,NE,40,1.0,3.0,94,0.00,,,0.00,0,Wunderground v.1.15,2013-02-06 05:20:00,
2013-02-06 00:25:00,29.9,28.4,29.93,NE,40,2.0,4.0,94,0.00,,,0.00,0,Wunderground v.1.15,2013-02-06 05:25:00,
2013-02-06 00:30:00,29.9,28.4,29.93,NE,40,1.0,1.0,94,0.00,,,0.00,0,Wunderground v.1.15,2013-02-06 05:30:00,
2013-02-06 00:35:00,29.9,28.4,29.93,NE,40,1.0,1.0,94,0.00,,,0.00,0,Wunderground v.1.15,2013-02-06 05:35:00,
2013-02-06 00:40:00,29.9,28.4,29.93,NE,40,0.0,2.0,94,0.00,,,0.00,0,Wunderground v.1.15,2013-02-06 05:40:00,
2013-02-06 00:45:00,29.9,28.4,29.93,NE,40,1.0,2.0,94,0.00,,,0.00,0,Wunderground v.1.15,2013-02-06 05:45:00,
2013-02-06 00:50:00,30.0,28.5,29.93,NE,40,1.0,1.0,94,0.00,,,0.00,0,Wunderground v.1.15,2013-02-06 05:50:00,
2013-02-06 00:55:00,30.0,28.5,29.93,NE,40,1.0,1.0,94,0.00,,,0.00,0,Wunderground v.1.15,2013-02-06 05:55:00,
2013-02-06 01:00:00,29.9,28.4,29.93,NE,40,0.0,0.0,94,0.00,,,0.00,0,Wunderground v.1.15,2013-02-06 06:00:00,
2013-02-06 01:05:00,29.9,28.4,29.93,NE,40,1.0,1.0,94,0.00,,,0.00,0,Wunderground v.1.15,2013-02-06 06:05:00,
2013-02-06 01:10:00,29.9,28.4,29.93,NE,40,1.0,1.0,94,0.00,,,0.00,0,Wunderground v.1.15,2013-02-06 06:10:00,
2013-02-06 01:15:00,29.9,28.4,29.93,NE,40,1.0,3.0,94,0.00,,,0.00,0,Wunderground v.1.15,2013-02-06 06:15:00,
2013-02-06 01:20:00,29.8,28.3,29.93,NE,40,1.0,3.0,94,0.00,,,0.00,0,Wunderground v.1.15,2013-02-06 06:20:00,
2013-02-06 01:25:00,29.7,28.2,29.93,NE,40,1.0,3.0,94,0.00,,,0.00,0,Wunderground v.1.15,2013-02-06 06:25:00,
2013-02-06 01:30:00,29.7,28.2,29.93,NE,40,2.0,2.0,94,0.00,,,0.00,0,Wunderground v.1.15,2013-02-06 06:30:00,
2013-02-06 01:35:00,29.6,28.1,29.93,NE,35,2.0,3.0,94,0.00,,,0.00,0,Wunderground v.1.15,2013-02-06 06:35:00,
2013-02-06 01:40:00,29.5,28.0,29.93,NE,35,2.0,3.0,94,0.00,,,0.00,0,Wunderground v.1.15,2013-02-06 06:40:00,
2013-02-06 01:45:00,29.5,28.0,29.93,NE,35,2.0,3.0,94,0.00,,,0.00,0,Wunderground v.1.15,2013-02-06 06:45:00,
2013-02-06 01:50:00,29.5,28.2,29.93,NE,35,1.0,3.0,95,0.00,,,0.00,0,Wunderground v.1.15,2013-02-06 06:50:00,
2013-02-06 01:55:00,29.5,28.0,29.93,NE,35,2.0,3.0,94,0.00,,,0.00,0,Wunderground v.1.15,2013-02-06 06:55:00,
2013-02-06 02:00:00,29.5,28.2,29.94,NE,35,2.0,2.0,95,0.00,,,0.00,0,Wunderground v.1.15,2013-02-06 07:00:00,
2013-02-06 02:05:00,29.4,27.9,29.94,NE,35,1.0,2.0,94,0.00,,,0.00,0,Wunderground v.1.15,2013-02-06 07:05:00,
2013-02-06 02:10:00,29.4,27.9,29.93,NE,35,0.0,1.0,94,0.00,,,0.00,0,Wunderground v.1.15,2013-02-06 07:10:00,
2013-02-06 02:15:00,29.4,28.1,29.93,NE,35,1.0,1.0,95,0.00,,,0.00,0,Wunderground v.1.15,2013-02-06 07:15:00,
2013-02-06 02:20:00,29.4,28.1,29.93,NE,35,1.0,1.0,95,0.00,,,0.00,0,Wunderground v.1.15,2013-02-06 07:20:00,
2013-02-06 02:25:00,29.4,28.1,29.94,NE,35,0.0,1.0,95,0.00,,,0.00,0,Wunderground v.1.15,2013-02-06 07:25:00,
2013-02-06 02:30:00,29.4,28.1,29.94,NE,35,0.0,0.0,95,0.00,,,0.00,0,Wunderground v.1.15,2013-02-06 07:30:00,
2013-02-06 02:35:00,29.4,28.1,29.94,NE,35,0.0,0.0,95,0.00,,,0.00,0,Wunderground v.1.15,2013-02-06 07:35:00,
2013-02-06 02:40:00,29.4,28.1,29.94,NE,35,0.0,2.0,95,0.00,,,0.00,0,Wunderground v.1.15,2013-02-06 07:40:00,
2013-02-06 02:45:00,29.4,28.1,29.94,NE,35,1.0,2.0,95,0.00,,,0.00,0,Wunderground v.1.15,2013-02-06 07:45:00,
2013-02-06 02:50:00,29.4,28.1,29.94,NE,35,1.0,2.0,95,0.00,,,0.00,0,Wunderground v.1.15,2013-02-06 07:50:00,
2013-02-06 02:55:00,29.4,28.1,29.94,NE,35,0.0,2.0,95,0.00,,,0.00,0,Wunderground v.1.15,2013-02-06 07:55:00,
2013-02-06 03:00:00,29.5,28.2,29.94,NE,35,0.0,0.0,95,0.00,,,0.00,0,Wunderground v.1.15,2013-02-06 08:00:00,
2013-02-06 03:05:00,29.4,28.1,29.94,NE,35,0.0,0.0,95,0.00,,,0.00,0,Wunderground v.1.15,2013-02-06 08:05:00,
2013-02-06 03:10:00,29.4,28.1,29.94,NE,35,0.0,1.0,95,0.00,,,0.00,0,Wunderground v.1.15,2013-02-06 08:10:00,
2013-02-06 03:15:00,29.4,28.1,29.93,NE,35,0.0,1.0,95,0.00,,,0.00,0,Wunderground v.1.15,2013-02-06 08:15:00,
2013-02-06 03:20:00,29.4,28.1,29.93,NE,35,0.0,0.0,95,0.00,,,0.00,0,Wunderground v.1.15,2013-02-06 08:20:00,
2013-02-06 03:25:00,29.4,28.1,29.93,NE,35,0.0,0.0,95,0.00,,,0.00,0,Wunderground v.1.15,2013-02-06 08:25:00,
2013-02-06 03:30:00,29.4,28.1,29.94,NE,35,0.0,0.0,95,0.00,,,0.00,0,Wunderground v.1.15,2013-02-06 08:30:00,
2013-02-06 03:35:00,29.4,28.1,29.94,NE,35,0.0,0.0,95,0.00,,,0.00,0,Wunderground v.1.15,2013-02-06 08:35:00,
2013-02-06 03:40:00,29.3,28.0,29.94,NE,35,0.0,1.0,95,0.00,,,0.00,0,Wunderground v.1.15,2013-02-06 08:40:00,
2013-02-06 03:50:00,29.4,28.1,29.94,NE,35,0.0,0.0,95,0.00,,,0.00,0,Wunderground v.1.15,2013-02-06 08:50:00,
2013-02-06 03:55:00,29.4,28.1,29.94,NE,35,0.0,0.0,95,0.00,,,0.00,0,Wunderground v.1.15,2013-02-06 08:55:00,
2013-02-06 04:00:00,29.3,28.0,29.94,NE,35,0.0,0.0,95,0.00,,,0.00,0,Wunderground v.1.15,2013-02-06 09:00:00,
2013-02-06 04:05:00,29.3,28.0,29.94,NE,35,0.0,0.0,95,0.00,,,0.00,0,Wunderground v.1.15,2013-02-06 09:05:00,
2013-02-06 04:10:00,29.2,27.9,29.95,NE,35,0.0,0.0,95,0.00,,,0.00,0,Wunderground v.1.15,2013-02-06 09:10:00,
2013-02-06 04:15:00,29.2,27.9,29.95,NE,35,0.0,0.0,95,0.00,,,0.00,0,Wunderground v.1.15,2013-02-06 09:15:00,
2013-02-06 04:20:00,29.3,28.0,29.95,NE,35,0.0,0.0,95,0.00,,,0.00,0,Wunderground v.1.15,2013-02-06 09:20:00,
2013-02-06 04:25:00,29.2,27.9,29.95,NE,35,0.0,0.0,95,0.00,,,0.00,0,Wunderground v.1.15,2013-02-06 09:25:00,
2013-02-06 04:30:00,29.1,27.8,29.96,NE,35,0.0,0.0,95,0.00,,,0.00,0,Wunderground v.1.15,2013-02-06 09:30:00,
2013-02-06 04:35:00,29.1,27.8,29.96,NE,35,0.0,0.0,95,0.00,,,0.00,0,Wunderground v.1.15,2013-02-06 09:35:00,
2013-02-06 04:40:00,29.0,27.7,29.96,NE,35,1.0,1.0,95,0.00,,,0.00,0,Wunderground v.1.15,2013-02-06 09:40:00,
2013-02-06 04:45:00,28.9,27.6,29.96,NE,35,0.0,3.0,95,0.00,,,0.00,0,Wunderground v.1.15,2013-02-06 09:45:00,
2013-02-06 04:55:00,28.9,27.6,29.96,NE,35,1.0,1.0,95,0.00,,,0.00,0,Wunderground v.1.15,2013-02-06 09:55:00,
2013-02-06 05:00:00,28.8,27.5,29.97,NE,35,0.0,0.0,95,0.00,,,0.00,0,Wunderground v.1.15,2013-02-06 10:00:00,
2013-02-06 05:05:00,28.4,27.2,29.97,NE,35,0.0,0.0,95,0.00,,,0.00,0,Wunderground v.1.15,2013-02-06 10:05:00,
2013-02-06 05:10:00,28.3,27.1,29.97,NE,35,0.0,0.0,95,0.00,,,0.00,0,Wunderground v.1.15,2013-02-06 10:10:00,
2013-02-06 05:20:00,28.1,26.9,29.97,NE,35,0.0,0.0,95,0.00,,,0.00,0,Wunderground v.1.15,2013-02-06 10:20:00,
2013-02-06 05:25:00,28.0,26.8,29.97,NE,35,0.0,0.0,95,0.00,,,0.00,0,Wunderground v.1.15,2013-02-06 10:25:00,
2013-02-06 05:30:00,27.8,26.6,29.98,NE,35,0.0,0.0,95,0.00,,,0.00,0,Wunderground v.1.15,2013-02-06 10:30:00,
2013-02-06 05:35:00,27.5,26.3,29.98,NE,35,0.0,0.0,95,0.00,,,0.00,0,Wunderground v.1.15,2013-02-06 10:35:00,
2013-02-06 05:40:00,27.6,26.4,29.99,NE,35,0.0,0.0,95,0.00,,,0.00,0,Wunderground v.1.15,2013-02-06 10:40:00,
2013-02-06 05:45:00,27.7,26.5,29.99,NE,35,0.0,0.0,95,0.00,,,0.00,0,Wunderground v.1.15,2013-02-06 10:45:00,
2013-02-06 05:55:00,27.7,26.5,30.00,NE,35,0.0,0.0,95,0.00,,,0.00,0,Wunderground v.1.15,2013-02-06 10:55:00,
2013-02-06 06:00:00,27.6,26.4,30.00,NE,35,0.0,0.0,95,0.00,,,0.00,0,Wunderground v.1.15,2013-02-06 11:00:00,
2013-02-06 06:05:00,27.7,26.5,30.00,NE,35,0.0,0.0,95,0.00,,,0.00,0,Wunderground v.1.15,2013-02-06 11:05:00,
2013-02-06 06:10:00,27.7,26.5,30.00,NE,35,0.0,0.0,95,0.00,,,0.00,0,Wunderground v.1.15,2013-02-06 11:10:00,
2013-02-06 06:15:00,27.6,26.4,30.00,NE,35,0.0,0.0,95,0.00,,,0.00,0,Wunderground v.1.15,2013-02-06 11:15:00,
2013-02-06 06:20:00,27.4,26.2,30.01,NE,35,0.0,0.0,95,0.00,,,0.00,0,Wunderground v.1.15,2013-02-06 11:20:00,
2013-02-06 06:25:00,27.3,26.1,30.01,NE,35,0.0,0.0,95,0.00,,,0.00,0,Wunderground v.1.15,2013-02-06 11:25:00,
2013-02-06 06:30:00,27.2,26.0,30.01,NE,35,0.0,0.0,95,0.00,,,0.00,0,Wunderground v.1.15,2013-02-06 11:30:00,
2013-02-06 06:40:00,26.8,25.6,30.02,NE,35,0.0,0.0,95,0.00,,,0.00,0,Wunderground v.1.15,2013-02-06 11:40:00,
2013-02-06 06:45:00,26.5,25.3,30.02,NE,35,0.0,0.0,95,0.00,,,0.00,0,Wunderground v.1.15,2013-02-06 11:45:00,
2013-02-06 06:50:00,26.3,25.1,30.02,NE,35,0.0,0.0,95,0.00,,,0.00,0,Wunderground v.1.15,2013-02-06 11:50:00,
2013-02-06 06:55:00,26.1,24.9,30.02,NE,35,0.0,0.0,95,0.00,,,0.00,0,Wunderground v.1.15,2013-02-06 11:55:00,
2013-02-06 07:00:00,26.1,24.9,30.02,NE,35,0.0,0.0,95,0.00,,,0.00,5,Wunderground v.1.15,2013-02-06 12:00:00,
2013-02-06 07:05:00,26.3,25.1,30.02,NE,35,0.0,0.0,95,0.00,,,0.00,7,Wunderground v.1.15,2013-02-06 12:05:00,
2013-02-06 07:10:00,26.3,25.3,30.03,NE,35,0.0,0.0,96,0.00,,,0.00,9,Wunderground v.1.15,2013-02-06 12:10:00,
2013-02-06 07:15:00,26.1,24.9,30.03,NE,35,0.0,0.0,95,0.00,,,0.00,9,Wunderground v.1.15,2013-02-06 12:15:00,
2013-02-06 07:20:00,25.8,24.6,30.03,NE,35,0.0,0.0,95,0.00,,,0.00,11,Wunderground v.1.15,2013-02-06 12:20:00,
2013-02-06 07:25:00,25.8,24.6,30.04,NE,35,0.0,0.0,95,0.00,,,0.00,12,Wunderground v.1.15,2013-02-06 12:25:00,
2013-02-06 07:30:00,25.7,24.5,30.04,NE,35,0.0,0.0,95,0.00,,,0.00,19,Wunderground v.1.15,2013-02-06 12:30:00,
2013-02-06 07:35:00,25.6,24.4,30.04,NE,35,0.0,0.0,95,0.00,,,0.00,30,Wunderground v.1.15,2013-02-06 12:35:00,
2013-02-06 07:45:00,25.4,24.2,30.04,NE,35,0.0,0.0,95,0.00,,,0.00,60,Wunderground v.1.15,2013-02-06 12:45:00,
2013-02-06 07:50:00,25.4,24.2,30.05,NE,35,0.0,0.0,95,0.00,,,0.00,63,Wunderground v.1.15,2013-02-06 12:50:00,
2013-02-06 07:55:00,25.6,24.4,30.05,NE,46,0.0,0.0,95,0.00,,,0.00,91,Wunderground v.1.15,2013-02-06 12:55:00,
2013-02-06 08:00:00,25.7,24.7,30.06,NE,46,0.0,0.0,96,0.00,,,0.00,113,Wunderground v.1.15,2013-02-06 13:00:00,
2013-02-06 08:05:00,26.0,25.0,30.06,NE,46,0.0,0.0,96,0.00,,,0.00,130,Wunderground v.1.15,2013-02-06 13:05:00,
2013-02-06 08:10:00,26.4,25.4,30.06,NE,46,0.0,0.0,96,0.00,,,0.00,148,Wunderground v.1.15,2013-02-06 13:10:00,
2013-02-06 08:15:00,26.6,25.6,30.06,NE,46,0.0,0.0,96,0.00,,,0.00,165,Wunderground v.1.15,2013-02-06 13:15:00,
2013-02-06 08:20:00,27.0,26.0,30.06,NE,46,0.0,0.0,96,0.00,,,0.00,172,Wunderground v.1.15,2013-02-06 13:20:00,
2013-02-06 08:25:00,27.6,26.6,30.07,NE,46,0.0,1.0,96,0.00,,,0.00,183,Wunderground v.1.15,2013-02-06 13:25:00,
2013-02-06 08:30:00,27.8,26.8,30.08,NE,46,1.0,1.0,96,0.00,,,0.00,206,Wunderground v.1.15,2013-02-06 13:30:00,
2013-02-06 08:35:00,28.3,27.3,30.08,NE,46,1.0,1.0,96,0.00,,,0.00,232,Wunderground v.1.15,2013-02-06 13:35:00,
2013-02-06 08:40:00,28.8,27.8,30.08,NE,46,1.0,2.0,96,0.00,,,0.00,251,Wunderground v.1.15,2013-02-06 13:40:00,
2013-02-06 08:45:00,29.3,28.3,30.08,NE,46,1.0,2.0,96,0.00,,,0.00,255,Wunderground v.1.15,2013-02-06 13:45:00,
2013-02-06 08:50:00,30.1,29.1,30.08,NNW,340,2.0,3.0,96,0.00,,,0.00,264,Wunderground v.1.15,2013-02-06 13:50:00,
2013-02-06 08:55:00,30.9,29.9,30.08,WNW,300,3.0,3.0,96,0.00,,,0.00,269,Wunderground v.1.15,2013-02-06 13:55:00,
2013-02-06 09:00:00,31.3,30.3,30.08,WNW,300,2.0,5.0,96,0.00,,,0.00,283,Wunderground v.1.15,2013-02-06 14:00:00,
2013-02-06 09:05:00,31.7,30.4,30.08,WNW,295,2.0,5.0,95,0.00,,,0.00,287,Wunderground v.1.15,2013-02-06 14:05:00,
2013-02-06 09:10:00,32.4,31.1,30.08,NW,306,2.0,5.0,95,0.00,,,0.00,311,Wunderground v.1.15,2013-02-06 14:10:00,
2013-02-06 09:15:00,33.0,30.9,30.07,WNW,302,4.0,5.0,92,0.00,,,0.00,320,Wunderground v.1.15,2013-02-06 14:15:00,
2013-02-06 09:20:00,33.5,30.9,30.07,West,279,5.0,5.0,90,0.00,,,0.00,338,Wunderground v.1.15,2013-02-06 14:20:00,
2013-02-06 09:25:00,33.4,29.9,30.07,NW,316,5.0,8.0,87,0.00,,,0.00,359,Wunderground v.1.15,2013-02-06 14:25:00,
2013-02-06 09:30:00,33.9,29.9,30.08,WNW,287,6.0,6.0,85,0.00,,,0.00,380,Wunderground v.1.15,2013-02-06 14:30:00,
2013-02-06 09:35:00,34.2,29.6,30.08,NW,304,6.0,8.0,83,0.00,,,0.01,385,Wunderground v.1.15,2013-02-06 14:35:00,
2013-02-06 09:40:00,34.4,28.9,30.08,West,273,7.0,7.0,80,0.00,,,0.01,388,Wunderground v.1.15,2013-02-06 14:40:00,
2013-02-06 09:45:00,35.0,29.1,30.08,NW,319,6.0,7.0,79,0.00,,,0.01,403,Wunderground v.1.15,2013-02-06 14:45:00,
2013-02-06 09:50:00,35.0,28.5,30.09,NW,314,7.0,9.0,77,0.00,,,0.01,410,Wunderground v.1.15,2013-02-06 14:50:00,
2013-02-06 09:55:00,35.2,28.7,30.09,West,268,8.0,9.0,77,0.00,,,0.01,425,Wunderground v.1.15,2013-02-06 14:55:00,
2013-02-06 10:00:00,35.4,28.3,30.10,NW,315,8.0,12.0,75,0.00,,,0.01,434,Wunderground v.1.15,2013-02-06 15:00:00,
2013-02-06 10:05:00,35.7,28.6,30.10,West,274,8.0,12.0,75,0.00,,,0.02,454,Wunderground v.1.15,2013-02-06 15:05:00,
2013-02-06 10:10:00,35.6,27.8,30.11,WNW,293,9.0,9.0,73,0.00,,,0.02,452,Wunderground v.1.15,2013-02-06 15:10:00,
2013-02-06 10:15:00,35.6,27.8,30.11,WNW,283,9.0,9.0,73,0.00,,,0.02,469,Wunderground v.1.15,2013-02-06 15:15:00,
2013-02-06 10:20:00,35.9,27.7,30.11,NW,314,8.0,8.0,72,0.00,,,0.02,480,Wunderground v.1.15,2013-02-06 15:20:00,
2013-02-06 10:30:00,36.0,28.2,30.11,NNW,333,7.0,9.0,73,0.00,,,0.02,489,Wunderground v.1.15,2013-02-06 15:30:00,
2013-02-06 10:35:00,36.3,28.1,30.11,NW,315,7.0,9.0,72,0.00,,,0.02,499,Wunderground v.1.15,2013-02-06 15:35:00,
2013-02-06 10:40:00,36.4,27.5,30.11,West,273,8.0,8.0,70,0.00,,,0.02,501,Wunderground v.1.15,2013-02-06 15:40:00,
2013-02-06 10:45:00,36.6,27.7,30.11,NNW,329,7.0,11.0,70,0.00,,,0.02,506,Wunderground v.1.15,2013-02-06 15:45:00,
2013-02-06 10:50:00,37.0,27.8,30.11,West,273,6.0,6.0,69,0.00,,,0.02,504,Wunderground v.1.15,2013-02-06 15:50:00,
2013-02-06 10:55:00,36.8,27.6,30.11,WNW,294,7.0,8.0,69,0.00,,,0.02,517,Wunderground v.1.15,2013-02-06 15:55:00,
2013-02-06 11:00:00,36.9,27.7,30.11,WNW,288,7.0,8.0,69,0.00,,,0.03,527,Wunderground v.1.15,2013-02-06 16:00:00,
2013-02-06 11:05:00,37.2,27.6,30.11,WNW,290,7.0,9.0,68,0.00,,,0.03,531,Wunderground v.1.15,2013-02-06 16:05:00,
2013-02-06 11:10:00,37.4,27.8,30.10,WNW,297,8.0,8.0,68,0.00,,,0.03,541,Wunderground v.1.15,2013-02-06 16:10:00,
2013-02-06 11:15:00,37.5,27.9,30.10,West,281,8.0,8.0,68,0.00,,,0.03,548,Wunderground v.1.15,2013-02-06 16:15:00,
2013-02-06 11:20:00,37.7,27.7,30.10,NW,318,8.0,8.0,67,0.00,,,0.03,541,Wunderground v.1.15,2013-02-06 16:20:00,
2013-02-06 11:25:00,37.8,28.2,30.10,WNW,294,7.0,8.0,68,0.00,,,0.03,471,Wunderground v.1.15,2013-02-06 16:25:00,
2013-02-06 11:30:00,38.6,28.2,30.10,WSW,247,6.0,11.0,66,0.00,,,0.03,568,Wunderground v.1.15,2013-02-06 16:30:00,
2013-02-06 11:35:00,38.3,27.9,30.09,NW,307,7.0,11.0,66,0.00,,,0.03,557,Wunderground v.1.15,2013-02-06 16:35:00,
2013-02-06 11:40:00,38.6,27.8,30.09,WNW,291,7.0,7.0,65,0.00,,,0.03,577,Wunderground v.1.15,2013-02-06 16:40:00,
2013-02-06 11:45:00,39.0,28.2,30.09,NNW,340,8.0,9.0,65,0.00,,,0.03,571,Wunderground v.1.15,2013-02-06 16:45:00,
2013-02-06 11:50:00,39.2,28.4,30.09,WNW,302,8.0,8.0,65,0.00,,,0.03,584,Wunderground v.1.15,2013-02-06 16:50:00,
2013-02-06 11:55:00,39.0,26.7,30.09,WNW,301,8.0,8.0,61,0.00,,,0.03,591,Wunderground v.1.15,2013-02-06 16:55:00,
2013-02-06 12:00:00,39.3,28.1,30.09,NW,311,8.0,8.0,64,0.00,,,0.03,591,Wunderground v.1.15,2013-02-06 17:00:00,
2013-02-06 12:05:00,39.8,28.6,30.09,NW,323,6.0,8.0,64,0.00,,,0.03,599,Wunderground v.1.15,2013-02-06 17:05:00,
2013-02-06 12:10:00,40.2,28.6,30.10,WNW,290,6.0,10.0,63,0.00,,,0.03,615,Wunderground v.1.15,2013-02-06 17:10:00,
2013-02-06 12:20:00,39.5,27.5,30.10,WNW,290,9.0,12.0,62,0.00,,,0.03,193,Wunderground v.1.15,2013-02-06 17:20:00,
2013-02-06 12:25:00,39.1,26.4,30.10,West,276,8.0,12.0,60,0.00,,,0.03,798,Wunderground v.1.15,2013-02-06 17:25:00,
2013-02-06 12:30:00,39.6,26.4,30.10,NNW,347,8.0,12.0,59,0.00,,,0.03,174,Wunderground v.1.15,2013-02-06 17:30:00,
2013-02-06 12:35:00,38.4,24.9,30.10,WSW,248,9.0,12.0,58,0.00,,,0.03,262,Wunderground v.1.15,2013-02-06 17:35:00,
2013-02-06 12:40:00,37.9,24.4,30.10,WNW,302,10.0,10.0,58,0.00,,,0.03,207,Wunderground v.1.15,2013-02-06 17:40:00,
2013-02-06 12:45:00,37.7,24.6,30.11,WNW,291,8.0,10.0,59,0.00,,,0.03,183,Wunderground v.1.15,2013-02-06 17:45:00,
2013-02-06 12:50:00,37.3,24.3,30.10,WNW,301,8.0,10.0,59,0.00,,,0.03,167,Wunderground v.1.15,2013-02-06 17:50:00,
2013-02-06 12:55:00,37.1,24.5,30.11,West,272,7.0,10.0,60,0.00,,,0.03,207,Wunderground v.1.15,2013-02-06 17:55:00,
2013-02-06 13:00:00,37.3,25.1,30.11,NNW,336,5.0,7.0,61,0.00,,,0.03,190,Wunderground v.1.15,2013-02-06 18:00:00,
2013-02-06 13:05:00,37.5,24.5,30.10,NNE,15,6.0,9.0,59,0.00,,,0.03,186,Wunderground v.1.15,2013-02-06 18:05:00,
2013-02-06 13:10:00,37.3,24.7,30.11,WNW,282,7.0,8.0,60,0.00,,,0.03,167,Wunderground v.1.15,2013-02-06 18:10:00,
2013-02-06 13:15:00,37.3,25.1,30.11,WNW,300,6.0,9.0,61,0.00,,,0.03,183,Wunderground v.1.15,2013-02-06 18:15:00,
2013-02-06 13:20:00,37.3,24.3,30.11,NW,317,6.0,8.0,59,0.00,,,0.03,202,Wunderground v.1.15,2013-02-06 18:20:00,
2013-02-06 13:25:00,37.4,24.8,30.11,NNW,341,7.0,8.0,60,0.00,,,0.03,246,Wunderground v.1.15,2013-02-06 18:25:00,
2013-02-06 13:30:00,37.5,24.1,30.11,WNW,297,7.0,7.0,58,0.00,,,0.03,200,Wunderground v.1.15,2013-02-06 18:30:00,
2013-02-06 13:35:00,37.2,24.6,30.11,NNW,345,8.0,8.0,60,0.00,,,0.03,181,Wunderground v.1.15,2013-02-06 18:35:00,
2013-02-06 13:40:00,37.3,24.7,30.11,NNW,341,7.0,7.0,60,0.00,,,0.03,162,Wunderground v.1.15,2013-02-06 18:40:00,
2013-02-06 13:45:00,37.1,24.5,30.11,WNW,296,6.0,7.0,60,0.00,,,0.03,151,Wunderground v.1.15,2013-02-06 18:45:00,
2013-02-06 13:50:00,37.1,24.5,30.11,WNW,293,6.0,6.0,60,0.00,,,0.03,142,Wunderground v.1.15,2013-02-06 18:50:00,
2013-02-06 13:55:00,37.2,25.0,30.12,NW,315,6.0,7.0,61,0.00,,,0.03,167,Wunderground v.1.15,2013-02-06 18:55:00,
2013-02-06 14:00:00,37.3,25.1,30.12,West,265,7.0,7.0,61,0.00,,,0.03,262,Wunderground v.1.15,2013-02-06 19:00:00,
2013-02-06 14:05:00,37.7,25.1,30.12,West,279,6.0,7.0,60,0.00,,,0.03,345,Wunderground v.1.15,2013-02-06 19:05:00,
2013-02-06 14:10:00,38.6,26.3,30.12,SW,236,6.0,7.0,61,0.00,,,0.03,649,Wunderground v.1.15,2013-02-06 19:10:00,
2013-02-06 14:15:00,39.0,25.9,30.12,NNW,333,7.0,7.0,59,0.00,,,0.03,295,Wunderground v.1.15,2013-02-06 19:15:00,
2013-02-06 14:20:00,38.5,25.4,30.12,WNW,292,7.0,11.0,59,0.00,,,0.03,415,Wunderground v.1.15,2013-02-06 19:20:00,
2013-02-06 14:25:00,38.5,25.8,30.12,NNW,347,8.0,11.0,60,0.00,,,0.03,520,Wunderground v.1.15,2013-02-06 19:25:00,
2013-02-06 14:30:00,39.1,26.0,30.12,WNW,286,7.0,7.0,59,0.00,,,0.03,561,Wunderground v.1.15,2013-02-06 19:30:00,
2013-02-06 14:35:00,39.6,25.2,30.12,NW,306,7.0,15.0,56,0.00,,,0.03,441,Wunderground v.1.15,2013-02-06 19:35:00,
2013-02-06 14:40:00,39.4,24.1,30.12,NW,320,9.0,12.0,54,0.00,,,0.03,90,Wunderground v.1.15,2013-02-06 19:40:00,
2013-02-06 14:45:00,38.1,23.3,30.13,NW,308,8.0,12.0,55,0.00,,,0.03,91,Wunderground v.1.15,2013-02-06 19:45:00,
2013-02-06 14:50:00,37.5,23.6,30.13,NW,310,7.0,7.0,57,0.00,,,0.03,58,Wunderground v.1.15,2013-02-06 19:50:00,
2013-02-06 14:55:00,37.0,23.2,30.13,NW,304,7.0,7.0,57,0.00,,,0.03,67,Wunderground v.1.15,2013-02-06 19:55:00,
2013-02-06 15:00:00,36.9,23.1,30.13,NW,325,6.0,6.0,57,0.00,,,0.03,381,Wunderground v.1.15,2013-02-06 20:00:00,
2013-02-06 15:05:00,37.6,24.1,30.13,NW,310,6.0,6.0,58,0.00,,,0.03,232,Wunderground v.1.15,2013-02-06 20:05:00,
2013-02-06 15:10:00,38.0,23.3,30.13,WNW,282,7.0,11.0,55,0.00,,,0.03,56,Wunderground v.1.15,2013-02-06 20:10:00,
2013-02-06 15:15:00,38.1,24.2,30.13,North,360,8.0,11.0,57,0.00,,,0.03,63,Wunderground v.1.15,2013-02-06 20:15:00,
2013-02-06 15:20:00,38.3,24.0,30.13,WNW,294,7.0,14.0,56,0.00,,,0.03,51,Wunderground v.1.15,2013-02-06 20:20:00,
2013-02-06 15:25:00,38.1,23.3,30.14,WNW,302,7.0,14.0,55,0.00,,,0.03,49,Wunderground v.1.15,2013-02-06 20:25:00,
2013-02-06 15:30:00,37.9,23.2,30.14,WNW,300,7.0,12.0,55,0.00,,,0.03,44,Wunderground v.1.15,2013-02-06 20:30:00,
2013-02-06 15:35:00,37.8,23.9,30.14,WNW,294,8.0,12.0,57,0.00,,,0.03,42,Wunderground v.1.15,2013-02-06 20:35:00,
2013-02-06 15:40:00,37.6,23.3,30.14,NW,309,9.0,11.0,56,0.00,,,0.03,42,Wunderground v.1.15,2013-02-06 20:40:00,
2013-02-06 15:45:00,37.5,23.2,30.14,WNW,295,8.0,11.0,56,0.00,,,0.03,42,Wunderground v.1.15,2013-02-06 20:45:00,
2013-02-06 15:50:00,37.5,23.2,30.15,NW,319,8.0,8.0,56,0.00,,,0.03,40,Wunderground v.1.15,2013-02-06 20:50:00,
2013-02-06 15:55:00,37.5,23.6,30.14,NW,313,7.0,10.0,57,0.00,,,0.03,39,Wunderground v.1.15,2013-02-06 20:55:00,
2013-02-06 16:00:00,37.5,23.6,30.14,North,355,6.0,11.0,57,0.00,,,0.03,37,Wunderground v.1.15,2013-02-06 21:00:00,
2013-02-06 16:05:00,37.4,23.5,30.15,West,263,7.0,11.0,57,0.00,,,0.03,35,Wunderground v.1.15,2013-02-06 21:05:00,
2013-02-06 16:15:00,37.0,23.2,30.15,NW,319,8.0,8.0,57,0.00,,,0.03,30,Wunderground v.1.15,2013-02-06 21:15:00,
2013-02-06 16:20:00,36.9,23.1,30.15,NW,323,7.0,7.0,57,0.00,,,0.03,30,Wunderground v.1.15,2013-02-06 21:20:00,
2013-02-06 16:25:00,36.6,22.4,30.16,NW,319,7.0,7.0,56,0.00,,,0.03,28,Wunderground v.1.15,2013-02-06 21:25:00,
2013-02-06 16:30:00,36.6,21.9,30.16,NNW,327,6.0,6.0,55,0.00,,,0.03,25,Wunderground v.1.15,2013-02-06 21:30:00,
2013-02-06 16:35:00,36.4,22.2,30.17,WNW,293,6.0,6.0,56,0.00,,,0.03,23,Wunderground v.1.15,2013-02-06 21:35:00,
2013-02-06 16:40:00,36.2,22.4,30.17,WNW,289,6.0,6.0,57,0.00,,,0.03,21,Wunderground v.1.15,2013-02-06 21:40:00,
2013-02-06 16:45:00,36.0,22.2,30.17,WNW,296,7.0,7.0,57,0.00,,,0.03,18,Wunderground v.1.15,2013-02-06 21:45:00,
2013-02-06 16:50:00,35.8,22.0,30.17,West,276,7.0,7.0,57,0.00,,,0.03,16,Wunderground v.1.15,2013-02-06 21:50:00,
2013-02-06 16:55:00,35.7,21.9,30.18,WNW,302,6.0,9.0,57,0.00,,,0.03,14,Wunderground v.1.15,2013-02-06 21:55:00,
2013-02-06 17:00:00,35.6,21.4,30.18,NNW,328,6.0,6.0,56,0.00,,,0.03,12,Wunderground v.1.15,2013-02-06 22:00:00,
2013-02-06 17:05:00,35.6,21.0,30.18,West,279,7.0,7.0,55,0.00,,,0.03,11,Wunderground v.1.15,2013-02-06 22:05:00,
2013-02-06 17:10:00,35.4,20.8,30.18,WNW,300,6.0,8.0,55,0.00,,,0.03,9,Wunderground v.1.15,2013-02-06 22:10:00,
2013-02-06 17:15:00,35.3,20.3,30.18,NW,315,6.0,8.0,54,0.00,,,0.03,7,Wunderground v.1.15,2013-02-06 22:15:00,
2013-02-06 17:20:00,34.9,20.8,30.19,NNW,343,6.0,7.0,56,0.00,,,0.03,5,Wunderground v.1.15,2013-02-06 22:20:00,
2013-02-06 17:25:00,34.5,20.8,30.19,NW,314,5.0,7.0,57,0.00,,,0.03,0,Wunderground v.1.15,2013-02-06 22:25:00,
2013-02-06 17:30:00,34.5,20.4,30.19,WNW,293,4.0,5.0,56,0.00,,,0.03,0,Wunderground v.1.15,2013-02-06 22:30:00,
2013-02-06 17:35:00,34.5,20.4,30.20,NW,312,5.0,5.0,56,0.00,,,0.03,0,Wunderground v.1.15,2013-02-06 22:35:00,
2013-02-06 17:40:00,34.6,19.6,30.20,WNW,288,5.0,5.0,54,0.00,,,0.03,0,Wunderground v.1.15,2013-02-06 22:40:00,
2013-02-06 17:45:00,34.6,19.6,30.20,NNW,329,3.0,5.0,54,0.00,,,0.03,0,Wunderground v.1.15,2013-02-06 22:45:00,
2013-02-06 17:50:00,34.4,19.5,30.20,WNW,282,5.0,5.0,54,0.00,,,0.03,0,Wunderground v.1.15,2013-02-06 22:50:00,
2013-02-06 17:55:00,34.3,19.4,30.21,NNW,339,6.0,6.0,54,0.00,,,0.03,0,Wunderground v.1.15,2013-02-06 22:55:00,
2013-02-06 18:00:00,34.2,19.3,30.21,NW,322,5.0,5.0,54,0.00,,,0.03,0,Wunderground v.1.15,2013-02-06 23:00:00,
2013-02-06 18:05:00,34.3,19.4,30.22,NW,310,5.0,5.0,54,0.00,,,0.03,0,Wunderground v.1.15,2013-02-06 23:05:00,
2013-02-06 18:10:00,34.2,19.3,30.22,NW,311,3.0,4.0,54,0.00,,,0.03,0,Wunderground v.1.15,2013-02-06 23:10:00,
2013-02-06 18:15:00,34.1,19.2,30.23,North,355,3.0,5.0,54,0.00,,,0.03,0,Wunderground v.1.15,2013-02-06 23:15:00,
2013-02-06 18:20:00,34.0,19.5,30.23,NW,324,5.0,5.0,55,0.00,,,0.03,0,Wunderground v.1.15,2013-02-06 23:20:00,
2013-02-06 18:25:00,33.8,19.3,30.23,NNW,330,5.0,8.0,55,0.00,,,0.03,0,Wunderground v.1.15,2013-02-06 23:25:00,
2013-02-06 18:30:00,33.6,19.6,30.24,NNW,327,5.0,5.0,56,0.00,,,0.03,0,Wunderground v.1.15,2013-02-06 23:30:00,
2013-02-06 18:35:00,33.6,19.6,30.25,North,349,5.0,5.0,56,0.00,,,0.03,0,Wunderground v.1.15,2013-02-06 23:35:00,
2013-02-06 18:40:00,33.5,19.5,30.25,NW,317,5.0,5.0,56,0.00,,,0.03,0,Wunderground v.1.15,2013-02-06 23:40:00,
2013-02-06 18:45:00,33.4,19.8,30.25,WNW,296,5.0,11.0,57,0.00,,,0.03,0,Wunderground v.1.15,2013-02-06 23:45:00,
2013-02-06 18:50:00,33.4,19.8,30.25,North,11,7.0,10.0,57,0.00,,,0.03,0,Wunderground v.1.15,2013-02-06 23:50:00,
2013-02-06 18:55:00,33.4,19.4,30.26,NW,318,7.0,10.0,56,0.00,,,0.03,0,Wunderground v.1.15,2013-02-06 23:55:00,
2013-02-06 19:00:00,33.4,19.4,30.26,NNW,346,6.0,7.0,56,0.00,,,0.03,0,Wunderground v.1.15,2013-02-07 00:00:00,
2013-02-06 19:05:00,33.1,19.1,30.26,NW,319,5.0,7.0,56,0.00,,,0.03,0,Wunderground v.1.15,2013-02-07 00:05:00,
2013-02-06 19:10:00,33.1,19.1,30.26,WNW,300,6.0,7.0,56,0.00,,,0.03,0,Wunderground v.1.15,2013-02-07 00:10:00,
2013-02-06 19:15:00,33.2,18.8,30.26,NNW,329,7.0,7.0,55,0.00,,,0.03,0,Wunderground v.1.15,2013-02-07 00:15:00,
2013-02-06 19:20:00,33.0,18.6,30.26,NW,317,7.0,7.0,55,0.00,,,0.03,0,Wunderground v.1.15,2013-02-07 00:20:00,
2013-02-06 19:25:00,33.0,18.6,30.26,NNW,337,7.0,7.0,55,0.00,,,0.03,0,Wunderground v.1.15,2013-02-07 00:25:00,
2013-02-06 19:30:00,32.7,18.7,30.27,NW,325,5.0,10.0,56,0.00,,,0.03,0,Wunderground v.1.15,2013-02-07 00:30:00,
2013-02-06 19:35:00,32.4,18.8,30.27,NW,315,6.0,10.0,57,0.00,,,0.03,0,Wunderground v.1.15,2013-02-07 00:35:00,
2013-02-06 19:40:00,32.2,18.7,30.27,North,355,6.0,6.0,57,0.00,,,0.03,0,Wunderground v.1.15,2013-02-07 00:40:00,
2013-02-06 19:45:00,32.0,18.9,30.28,WNW,288,5.0,6.0,58,0.00,,,0.03,0,Wunderground v.1.15,2013-02-07 00:45:00,
2013-02-06 19:50:00,32.0,18.5,30.28,NNW,343,6.0,6.0,57,0.00,,,0.03,0,Wunderground v.1.15,2013-02-07 00:50:00,
2013-02-06 19:55:00,32.0,18.5,30.28,North,360,7.0,7.0,57,0.00,,,0.03,0,Wunderground v.1.15,2013-02-07 00:55:00,
2013-02-06 20:00:00,31.8,18.7,30.28,NW,321,6.0,6.0,58,0.00,,,0.03,0,Wunderground v.1.15,2013-02-07 01:00:00,
2013-02-06 20:05:00,31.6,18.5,30.29,WNW,303,5.0,6.0,58,0.00,,,0.03,0,Wunderground v.1.15,2013-02-07 01:05:00,
2013-02-06 20:10:00,31.5,18.4,30.29,NW,304,6.0,6.0,58,0.00,,,0.03,0,Wunderground v.1.15,2013-02-07 01:10:00,
2013-02-06 20:15:00,31.6,18.1,30.30,NW,324,7.0,7.0,57,0.00,,,0.03,0,Wunderground v.1.15,2013-02-07 01:15:00,
2013-02-06 20:20:00,31.7,18.2,30.30,North,351,6.0,6.0,57,0.00,,,0.03,0,Wunderground v.1.15,2013-02-07 01:20:00,
2013-02-06 20:25:00,31.5,18.0,30.30,NW,317,5.0,7.0,57,0.00,,,0.03,0,Wunderground v.1.15,2013-02-07 01:25:00,
2013-02-06 20:30:00,31.3,17.8,30.30,NNW,338,5.0,7.0,57,0.00,,,0.03,0,Wunderground v.1.15,2013-02-07 01:30:00,
2013-02-06 20:35:00,31.2,17.7,30.30,NW,324,7.0,7.0,57,0.00,,,0.03,0,Wunderground v.1.15,2013-02-07 01:35:00,
2013-02-06 20:40:00,31.3,17.4,30.31,NNW,331,7.0,7.0,56,0.00,,,0.03,0,Wunderground v.1.15,2013-02-07 01:40:00,
2013-02-06 20:45:00,31.2,17.3,30.31,NW,320,8.0,8.0,56,0.00,,,0.03,0,Wunderground v.1.15,2013-02-07 01:45:00,
2013-02-06 20:50:00,31.0,17.5,30.31,NW,309,6.0,6.0,57,0.00,,,0.03,0,Wunderground v.1.15,2013-02-07 01:50:00,
2013-02-06 20:55:00,30.9,17.0,30.31,NW,309,4.0,6.0,56,0.00,,,0.03,0,Wunderground v.1.15,2013-02-07 01:55:00,
2013-02-06 21:00:00,30.9,17.0,30.32,NW,309,2.0,4.0,56,0.00,,,0.03,0,Wunderground v.1.15,2013-02-07 02:00:00,
2013-02-06 21:05:00,30.7,17.7,30.33,NNW,340,3.0,4.0,58,0.00,,,0.03,0,Wunderground v.1.15,2013-02-07 02:05:00,
2013-02-06 21:10:00,30.3,16.9,30.33,NW,321,3.0,3.0,57,0.00,,,0.03,0,Wunderground v.1.15,2013-02-07 02:10:00,
2013-02-06 21:15:00,30.0,17.4,30.33,NW,321,2.0,3.0,59,0.00,,,0.03,0,Wunderground v.1.15,2013-02-07 02:15:00,
2013-02-06 21:20:00,29.2,17.0,30.33,North,355,3.0,8.0,60,0.00,,,0.03,0,Wunderground v.1.15,2013-02-07 02:20:00,
2013-02-06 21:25:00,29.2,17.4,30.33,NNW,328,4.0,8.0,61,0.00,,,0.03,0,Wunderground v.1.15,2013-02-07 02:25:00,
2013-02-06 21:30:00,29.4,16.8,30.33,NNW,329,5.0,13.0,59,0.00,,,0.03,0,Wunderground v.1.15,2013-02-07 02:30:00,
2013-02-06 21:35:00,29.7,16.7,30.33,North,355,6.0,13.0,58,0.00,,,0.03,0,Wunderground v.1.15,2013-02-07 02:35:00,
2013-02-06 21:40:00,29.8,16.4,30.33,NW,324,6.0,8.0,57,0.00,,,0.03,0,Wunderground v.1.15,2013-02-07 02:40:00,
2013-02-06 21:45:00,29.9,16.1,30.33,NNW,333,6.0,8.0,56,0.00,,,0.03,0,Wunderground v.1.15,2013-02-07 02:45:00,
2013-02-06 21:50:00,29.7,15.5,30.33,NW,320,5.0,5.0,55,0.00,,,0.03,0,Wunderground v.1.15,2013-02-07 02:50:00,
2013-02-06 21:55:00,29.6,15.4,30.33,NW,317,4.0,5.0,55,0.00,,,0.03,0,Wunderground v.1.15,2013-02-07 02:55:00,
2013-02-06 22:00:00,29.3,15.5,30.33,NNW,327,5.0,5.0,56,0.00,,,0.03,0,Wunderground v.1.15,2013-02-07 03:00:00,
2013-02-06 22:05:00,29.2,15.0,30.33,NNW,329,5.0,5.0,55,0.00,,,0.03,0,Wunderground v.1.15,2013-02-07 03:05:00,
2013-02-06 22:10:00,29.0,15.2,30.33,NW,319,5.0,6.0,56,0.00,,,0.03,0,Wunderground v.1.15,2013-02-07 03:10:00,
2013-02-06 22:15:00,29.0,15.2,30.33,NNW,335,5.0,6.0,56,0.00,,,0.03,0,Wunderground v.1.15,2013-02-07 03:15:00,
2013-02-06 22:20:00,29.2,14.6,30.34,NW,325,6.0,6.0,54,0.00,,,0.03,0,Wunderground v.1.15,2013-02-07 03:20:00,
2013-02-06 22:25:00,29.3,14.7,30.34,WNW,302,6.0,6.0,54,0.00,,,0.03,0,Wunderground v.1.15,2013-02-07 03:25:00,
2013-02-06 22:30:00,29.3,14.7,30.35,North,360,5.0,5.0,54,0.00,,,0.03,0,Wunderground v.1.15,2013-02-07 03:30:00,
2013-02-06 22:35:00,29.3,14.7,30.35,NW,321,4.0,5.0,54,0.00,,,0.03,0,Wunderground v.1.15,2013-02-07 03:35:00,
2013-02-06 22:40:00,29.2,14.6,30.35,NW,321,3.0,3.0,54,0.00,,,0.03,0,Wunderground v.1.15,2013-02-07 03:40:00,
2013-02-06 22:45:00,28.8,14.2,30.35,NW,322,3.0,3.0,54,0.00,,,0.03,0,Wunderground v.1.15,2013-02-07 03:45:00,
2013-02-06 22:50:00,28.4,14.7,30.35,NNW,338,3.0,3.0,56,0.00,,,0.03,0,Wunderground v.1.15,2013-02-07 03:50:00,
2013-02-06 22:55:00,27.9,15.0,30.35,NW,324,3.0,3.0,58,0.00,,,0.03,0,Wunderground v.1.15,2013-02-07 03:55:00,
2013-02-06 23:00:00,27.9,15.0,30.35,NNW,333,4.0,5.0,58,0.00,,,0.03,0,Wunderground v.1.15,2013-02-07 04:00:00,
2013-02-06 23:05:00,27.8,14.9,30.35,NNW,344,4.0,5.0,58,0.00,,,0.03,0,Wunderground v.1.15,2013-02-07 04:05:00,
2013-02-06 23:10:00,27.9,14.6,30.36,North,355,4.0,6.0,57,0.00,,,0.03,0,Wunderground v.1.15,2013-02-07 04:10:00,
2013-02-06 23:15:00,28.0,14.7,30.36,NNW,348,5.0,9.0,57,0.00,,,0.03,0,Wunderground v.1.15,2013-02-07 04:15:00,
2013-02-06 23:20:00,27.8,14.5,30.36,NNW,340,5.0,5.0,57,0.00,,,0.03,0,Wunderground v.1.15,2013-02-07 04:20:00,
2013-02-06 23:25:00,27.8,14.1,30.36,NW,313,5.0,5.0,56,0.00,,,0.03,0,Wunderground v.1.15,2013-02-07 04:25:00,
2013-02-06 23:30:00,27.8,14.1,30.36,NW,315,4.0,4.0,56,0.00,,,0.03,0,Wunderground v.1.15,2013-02-07 04:30:00,
2013-02-06 23:35:00,27.8,13.7,30.37,NW,315,3.0,4.0,55,0.00,,,0.03,0,Wunderground v.1.15,2013-02-07 04:35:00,
2013-02-06 23:40:00,27.7,13.6,30.37,NW,315,2.0,2.0,55,0.00,,,0.03,0,Wunderground v.1.15,2013-02-07 04:40:00,
2013-02-06 23:45:00,27.3,13.2,30.37,NW,315,2.0,3.0,55,0.00,,,0.03,0,Wunderground v.1.15,2013-02-07 04:45:00,
2013-02-06 23:50:00,26.8,13.6,30.37,NW,315,3.0,3.0,57,0.00,,,0.03,0,Wunderground v.1.15,2013-02-07 04:50:00,